Airfield :
LOGIN :

Register | Disclaimer

   EN    FR    IT 

 










Legend :    VFR   Marginal VFR   IFR   Intensive IFR   Very Intensive IFR
Visi :
Ceiling :
>= 8 km
>= 3000ft
5 to 8 km
1000 to 3000 ft
1500m to 5 km
500 to 1000 ft
800 to 1500m
200 to 500 ft
< 800m
< 200 ft
Symbols :   Thunderstorms  Fog  Heavy snow  Heavy precipitations  Wind > 20 kt
SIGMETs :     Misc.  Thunderstorms  Icing  Turbulence  Mountain Waves  Volcanic Ashes






- Airport Elevation : 755 ft
- IATA code : DRS


EDDC - Dresden Klotzsche

CURRENT METAR :
  • 221120Z 30006KT 260V330 9999 BKN006 16/15 Q1014 BECMG BKN010

EXPIRED METARs :
  • 221050Z 29005KT 230V330 9999 BKN006 16/14 Q1014 BECMG BKN010
  • 221020Z 31005KT 260V360 9999 BKN005 15/14 Q1014 BECMG BKN010
  • 220950Z 31006KT 280V350 9999 BKN004 15/14 Q1014 BECMG BKN005
  • 220920Z 30007KT 260V330 9999 -RA BKN004 15/14 Q1013 BECMG BKN005
  • 220850Z 29006KT 250V320 9999 BKN004 15/14 Q1013 BECMG BKN005

TAF AMD TAF EDDC
Valid from the 22 at 09:00 until the 23 at 06:00 UTC


220943Z 2209/2306 31007KT 6000 BKN004
BECMG 2209/2212 BKN015
TEMPO 2212/2215 BKN008
TEMPO 2302/2306 2500 -RA BR BKN005



MET'MAP, your aeronautical weather chart ! - Copyright ORBIFLY December 2007 - Disclaimer

ORBIFLY MET'MAP TEAM :

Programming & Development : Alexandra Zaïnal
Concept & original design : Baudouin d'Aumeries
Assistance for programming : Marc-Olivier Méhu
Technical & hardware support : Manuel Goepfert

Contact : metmap@orbifly.com




SOURCES & CREDITS :

   NOAA